Главная страница
METAR-TAF:

METAR-TAF

Аэропорты :

Cerklje ob Krki, Словения

широта: 45-53-59N, долгота: 15-30-55E, высота над уровнем моря: 157 м

Текущие метеонаблюдения

Эта сводка был подготовлена 23 минут назад, в 03:30 UTC
Ветер 2 Узел от западный-юго-западный
Температура 3°C
Влажность 100%
Давление 1032 hPa
туман

METAR: LJCE 250330Z AUTO 24002KT //// R09///// FG VV002 03/03 Q1032

Время: 05:53 (03:53 UTC)

Прогноз

Эта сводка был подготовлена 1 час и 53 минут назад, в 02:00 UTC
Прогноз действительный с 25-го 03 UTC до 25-го 12 UTC
Ветер 2 Узел переменных направлений
Видимость: 0600 м
на высоте 200 фута
туман
изменения
С 25-го 06 UTC до 25-го 09 UTC
Ветер 5 Узел от восточно-северо-восточный
Видимость 10 км и более
Нет облачности ниже 1500 м, и нет кучево-дождевой облачности

TAF: LJCE 250200Z 2503/2512 VRB02KT 0600 FG VV002 BECMG 2506/2509 07005KT CAVOK

Метеонаблюдения и прогнозы для более 4000 аэропортов (сводки METAR и TAF).

Имеющиеся станции представлены на карте желтыми и красными точками.

Чтобы увидеть название станции, наведите на нее мышь.

Затем щелкните, чтобы увидеть метеонаблюдения и метеопрогнозы.

Управление картой: чтобы увеличить масштаб, щелкните зеленые кнопки с черным крестиком; чтобы уменьшить масштаб, щелкните зеленую кнопку с тире; для просмотра соседних карт щелкайте зеленые стрелки.


METAR-TAF: